Whiteman Air Force Base
KSZL : now visible

Airfield :











YOU CAN JOIN US ON...

 
LOGIN :

Register | Disclaimer

   EN    FR    IT 

 









Legend :    VFR   Marginal VFR   IFR   Intensive IFR   Very Intensive IFR
Visi :
Ceiling :
>= 8 km
>= 3000ft
5 to 8 km
1000 to 3000 ft
1500m to 5 km
500 to 1000 ft
800 to 1500m
200 to 500 ft
< 800m
< 200 ft
Symbols :   Thunderstorms  Fog  Heavy snow  Heavy precipitations  Wind > 20 kt






- Airport Elevation : 870 ft


KSZL - Whiteman Air Force Base

CURRENT METAR :
  • 250756Z 31009KT 10SM OVC012 00/00 A3002 RMK AO2A SLP177 T10051005 $

EXPIRED METARs :
  • 250707Z 31006KT 10SM OVC012 00/00 A3001 RMK AO2A SLPNO RVRNO $
  • 250556Z 28008KT 10SM BKN012 00/00 A3001 RMK AO2A SLP173 60000 4/004 T10021002 10002 21002 400071002 51006 $

TAF TAF KSZL
Valid from the 25 at 03:00 until the 26 at 09:00 UTC


250300Z 2503/2609 30006KT 8000 BR OVC013 620133 QNH3000INS
BECMG 2513/2514 27009KT 9999 NSW BKN015 OVC030 620153 QNH3002INS
BECMG 2602/2603 30009KT 6000 BR BKN005 OVC060 620604 QNH2999INS TX01/2519Z TNM04/2511Z



MET'MAP, your aeronautical weather chart ! - Copyright ORBIFLY December 2007 - Disclaimer

ORBIFLY MET'MAP TEAM :

Programming & Development : Alexandra Zaïnal
Concept & original design : Baudouin d'Aumeries
Assistance for programming : Marc-Olivier Méhu
Technical & hardware support : Manuel Goepfert

Contact : metmap@orbifly.com




SOURCES & CREDITS :

   NOAA       Earth
Advisory